Time,TemperatureF,DewpointF,PressureIn,WindDirection,WindDirectionDegrees,WindSpeedMPH,WindSpeedGustMPH,Humidity,HourlyPrecipIn,Conditions,Clouds,dailyrainin,SoftwareType,DateUTC
2013-02-21 00:21:00,41.0,30.0,29.88,ENE,61,1.0,4.0,64,0.00,,,-99.99,,2013-02-21 08:21:00,
2013-02-21 00:52:00,41.0,30.0,29.88,ENE,61,1.0,4.0,64,0.00,,,-99.99,,2013-02-21 08:52:00,
2013-02-21 01:01:00,41.0,30.0,29.88,ENE,61,1.0,4.0,64,0.00,,,-99.99,,2013-02-21 09:01:00,
2013-02-21 01:11:00,41.0,30.0,29.88,ENE,61,1.0,4.0,64,0.00,,,-99.99,,2013-02-21 09:11:00,
2013-02-21 02:51:00,39.0,29.0,29.86,ENE,61,1.0,5.0,68,0.00,,,-99.99,,2013-02-21 10:51:00,
2013-02-21 03:01:00,39.0,29.0,29.86,ENE,61,1.0,5.0,68,0.00,,,-99.99,,2013-02-21 11:01:00,
2013-02-21 03:11:00,39.0,29.0,29.86,ENE,61,1.0,5.0,68,0.00,,,-99.99,,2013-02-21 11:11:00,
2013-02-21 03:20:00,40.0,29.0,29.86,NE,50,2.0,7.0,65,0.00,,,-99.99,,2013-02-21 11:20:00,
2013-02-21 03:31:00,40.0,29.0,29.86,NE,50,2.0,7.0,65,0.00,,,-99.99,,2013-02-21 11:31:00,
2013-02-21 03:41:00,40.0,29.0,29.86,NE,50,2.0,7.0,65,0.00,,,-99.99,,2013-02-21 11:41:00,
2013-02-21 04:43:00,39.0,29.0,29.86,NE,50,2.0,5.0,67,0.00,,,-99.99,,2013-02-21 12:43:00,
2013-02-21 04:52:00,39.0,29.0,29.86,NE,50,2.0,5.0,67,0.00,,,-99.99,,2013-02-21 12:52:00,
2013-02-21 05:01:00,39.0,29.0,29.86,NE,50,2.0,5.0,67,0.00,,,-99.99,,2013-02-21 13:01:00,
2013-02-21 05:12:00,39.0,29.0,29.86,NE,50,2.0,5.0,67,0.00,,,-99.99,,2013-02-21 13:12:00,
2013-02-21 05:22:00,39.0,29.0,29.87,NE,41,0.0,1.0,67,0.00,,,-99.99,,2013-02-21 13:22:00,
2013-02-21 05:32:00,39.0,29.0,29.87,NE,41,0.0,1.0,67,0.00,,,-99.99,,2013-02-21 13:32:00,
2013-02-21 05:41:00,38.0,29.0,29.88,NE,41,0.0,4.0,69,0.00,,,-99.99,,2013-02-21 13:41:00,
2013-02-21 05:51:00,38.0,29.0,29.88,NE,41,0.0,4.0,69,0.00,,,-99.99,,2013-02-21 13:51:00,
2013-02-21 06:02:00,38.0,29.0,29.88,NE,41,0.0,4.0,69,0.00,,,-99.99,,2013-02-21 14:02:00,
2013-02-21 06:11:00,38.0,29.0,29.88,NE,41,0.0,4.0,69,0.00,,,-99.99,,2013-02-21 14:11:00,
2013-02-21 06:21:00,38.0,29.0,29.88,NE,40,0.0,0.0,70,0.00,,,-99.99,,2013-02-21 14:21:00,
2013-02-21 06:32:00,38.0,29.0,29.88,NE,40,0.0,0.0,70,0.00,,,-99.99,,2013-02-21 14:32:00,
2013-02-21 06:41:00,38.0,29.0,29.88,NE,41,1.0,4.0,71,0.00,,,-99.99,,2013-02-21 14:41:00,
2013-02-21 06:52:00,38.0,29.0,29.88,NE,41,1.0,4.0,71,0.00,,,-99.99,,2013-02-21 14:52:00,
2013-02-21 07:01:00,38.0,29.0,29.88,NE,41,1.0,4.0,71,0.00,,,-99.99,,2013-02-21 15:01:00,
2013-02-21 07:12:00,38.0,29.0,29.88,NE,41,1.0,4.0,71,0.00,,,-99.99,,2013-02-21 15:12:00,
2013-02-21 07:21:00,38.0,29.0,29.89,NE,41,0.0,1.0,70,0.00,,,-99.99,,2013-02-21 15:21:00,
2013-02-21 07:31:00,38.0,29.0,29.89,NE,41,0.0,1.0,70,0.00,,,-99.99,,2013-02-21 15:31:00,
2013-02-21 07:42:00,38.0,29.0,29.89,NE,41,0.0,1.0,70,0.00,,,-99.99,,2013-02-21 15:42:00,
2013-02-21 07:51:00,39.0,30.0,29.90,NE,41,0.0,2.0,70,0.00,,,-99.99,,2013-02-21 15:51:00,
2013-02-21 08:01:00,39.0,30.0,29.90,NE,41,0.0,2.0,70,0.00,,,-99.99,,2013-02-21 16:01:00,
2013-02-21 08:12:00,39.0,30.0,29.90,NE,41,0.0,2.0,70,0.00,,,-99.99,,2013-02-21 16:12:00,
2013-02-21 08:21:00,46.0,34.0,29.91,NNE,32,1.0,5.0,62,0.00,,,-99.99,,2013-02-21 16:21:00,
2013-02-21 08:42:00,46.0,34.0,29.91,NNE,32,1.0,5.0,62,0.00,,,-99.99,,2013-02-21 16:42:00,
2013-02-21 08:52:00,46.0,34.0,29.91,NNE,32,1.0,5.0,62,0.00,,,-99.99,,2013-02-21 16:52:00,
2013-02-21 09:01:00,46.0,34.0,29.91,NNE,32,1.0,5.0,62,0.00,,,-99.99,,2013-02-21 17:01:00,
2013-02-21 09:11:00,46.0,34.0,29.91,NNE,32,1.0,5.0,62,0.00,,,-99.99,,2013-02-21 17:11:00,
2013-02-21 10:22:00,54.0,38.0,29.92,NE,56,4.0,11.0,55,0.00,,,-99.99,,2013-02-21 18:22:00,
2013-02-21 10:31:00,54.0,38.0,29.92,NE,56,4.0,11.0,55,0.00,,,-99.99,,2013-02-21 18:31:00,
2013-02-21 10:42:00,54.0,38.0,29.92,NE,56,4.0,11.0,55,0.00,,,-99.99,,2013-02-21 18:42:00,
2013-02-21 10:51:00,56.0,35.0,29.91,NE,55,4.0,10.0,45,0.00,,,-99.99,,2013-02-21 18:51:00,
2013-02-21 11:01:00,56.0,35.0,29.91,NE,55,4.0,10.0,45,0.00,,,-99.99,,2013-02-21 19:01:00,
2013-02-21 11:11:00,56.0,35.0,29.91,NE,55,4.0,10.0,45,0.00,,,-99.99,,2013-02-21 19:11:00,
2013-02-21 11:21:00,58.0,35.0,29.90,East,88,2.0,9.0,42,0.00,,,-99.99,,2013-02-21 19:21:00,
2013-02-21 11:31:00,58.0,35.0,29.90,East,88,2.0,9.0,42,0.00,,,-99.99,,2013-02-21 19:31:00,
2013-02-21 11:41:00,58.0,35.0,29.90,East,88,2.0,9.0,42,0.00,,,-99.99,,2013-02-21 19:41:00,
2013-02-21 11:51:00,59.0,33.0,29.90,ENE,64,2.0,6.0,38,0.00,,,-99.99,,2013-02-21 19:51:00,
2013-02-21 12:01:00,59.0,33.0,29.90,ENE,64,2.0,6.0,38,0.00,,,-99.99,,2013-02-21 20:01:00,
2013-02-21 12:11:00,60.0,37.0,29.88,West,263,1.0,7.0,43,0.00,,,-99.99,,2013-02-21 20:11:00,
2013-02-21 12:21:00,60.0,37.0,29.88,West,263,1.0,7.0,43,0.00,,,-99.99,,2013-02-21 20:21:00,
2013-02-21 12:31:00,60.0,37.0,29.88,West,263,1.0,7.0,43,0.00,,,-99.99,,2013-02-21 20:31:00,
2013-02-21 12:41:00,60.0,37.0,29.88,West,263,1.0,7.0,43,0.00,,,-99.99,,2013-02-21 20:41:00,
2013-02-21 12:52:00,61.0,40.0,29.88,SW,217,1.0,4.0,46,0.00,,,-99.99,,2013-02-21 20:52:00,
2013-02-21 13:02:00,61.0,40.0,29.88,SW,217,1.0,4.0,46,0.00,,,-99.99,,2013-02-21 21:02:00,
2013-02-21 13:11:00,61.0,40.0,29.88,SW,217,1.0,4.0,46,0.00,,,-99.99,,2013-02-21 21:11:00,
2013-02-21 15:21:00,60.0,41.0,29.87,South,190,1.0,4.0,49,0.00,,,-99.99,,2013-02-21 23:21:00,
2013-02-21 15:31:00,60.0,41.0,29.87,South,190,1.0,4.0,49,0.00,,,-99.99,,2013-02-21 23:31:00,
2013-02-21 15:41:00,60.0,41.0,29.87,South,190,1.0,4.0,49,0.00,,,-99.99,,2013-02-21 23:41:00,
2013-02-21 15:52:00,59.0,39.0,29.87,SW,215,1.0,4.0,48,0.00,,,-99.99,,2013-02-21 23:52:00,
2013-02-21 16:01:00,59.0,39.0,29.87,SW,215,1.0,4.0,48,0.00,,,-99.99,,2013-02-22 00:01:00,
2013-02-21 16:11:00,59.0,39.0,29.87,SW,215,1.0,4.0,48,0.00,,,-99.99,,2013-02-22 00:11:00,
2013-02-21 18:11:00,54.0,43.0,29.91,West,269,0.0,2.0,65,0.00,,,-99.99,,2013-02-22 02:11:00,
2013-02-21 18:21:00,54.0,43.0,29.91,West,269,0.0,2.0,65,0.00,,,-99.99,,2013-02-22 02:21:00,
2013-02-21 18:31:00,54.0,43.0,29.91,West,269,0.0,2.0,65,0.00,,,-99.99,,2013-02-22 02:31:00,
2013-02-21 18:42:00,52.0,43.0,29.91,West,269,0.0,0.0,71,0.00,,,-99.99,,2013-02-22 02:42:00,
2013-02-21 18:52:00,52.0,43.0,29.91,West,269,0.0,0.0,71,0.00,,,-99.99,,2013-02-22 02:52:00,
2013-02-21 19:01:00,52.0,43.0,29.91,West,269,0.0,0.0,71,0.00,,,-99.99,,2013-02-22 03:01:00,
2013-02-21 19:11:00,51.0,43.0,29.92,West,269,0.0,1.0,73,0.00,,,-99.99,,2013-02-22 03:11:00,
2013-02-21 19:21:00,51.0,43.0,29.92,West,269,0.0,1.0,73,0.00,,,-99.99,,2013-02-22 03:21:00,
2013-02-21 19:31:00,51.0,43.0,29.92,West,269,0.0,1.0,73,0.00,,,-99.99,,2013-02-22 03:31:00,
2013-02-21 19:41:00,51.0,43.0,29.92,West,269,0.0,1.0,73,0.00,,,-99.99,,2013-02-22 03:41:00,
2013-02-21 19:51:00,50.0,42.0,29.94,NW,307,0.0,3.0,74,0.00,,,-99.99,,2013-02-22 03:51:00,
2013-02-21 20:01:00,50.0,42.0,29.94,NW,307,0.0,3.0,74,0.00,,,-99.99,,2013-02-22 04:01:00,
2013-02-21 20:11:00,50.0,42.0,29.94,NW,307,0.0,3.0,74,0.00,,,-99.99,,2013-02-22 04:11:00,
2013-02-21 20:42:00,48.0,39.0,29.95,NE,38,0.0,2.0,72,0.00,,,-99.99,,2013-02-22 04:42:00,
2013-02-21 20:52:00,48.0,39.0,29.95,NE,38,0.0,2.0,72,0.00,,,-99.99,,2013-02-22 04:52:00,
2013-02-21 21:01:00,48.0,39.0,29.95,NE,38,0.0,2.0,72,0.00,,,-99.99,,2013-02-22 05:01:00,
2013-02-21 21:11:00,48.0,39.0,29.95,NE,38,0.0,2.0,72,0.00,,,-99.99,,2013-02-22 05:11:00,
2013-02-21 21:21:00,48.0,39.0,29.96,NE,38,1.0,5.0,72,0.00,,,-99.99,,2013-02-22 05:21:00,
2013-02-21 21:32:00,48.0,39.0,29.96,NE,38,1.0,5.0,72,0.00,,,-99.99,,2013-02-22 05:32:00,
2013-02-21 21:41:00,46.0,37.0,29.97,NE,38,1.0,4.0,72,0.00,,,-99.99,,2013-02-22 05:41:00,
2013-02-21 21:52:00,46.0,37.0,29.97,NE,38,1.0,4.0,72,0.00,,,-99.99,,2013-02-22 05:52:00,
2013-02-21 22:01:00,46.0,37.0,29.97,NE,38,1.0,4.0,72,0.00,,,-99.99,,2013-02-22 06:01:00,
2013-02-21 22:11:00,46.0,37.0,29.97,NE,38,1.0,4.0,72,0.00,,,-99.99,,2013-02-22 06:11:00,
2013-02-21 22:21:00,46.0,37.0,29.97,NE,40,2.0,6.0,71,0.00,,,-99.99,,2013-02-22 06:21:00,
2013-02-21 22:52:00,46.0,37.0,29.97,NE,40,2.0,6.0,71,0.00,,,-99.99,,2013-02-22 06:52:00,
2013-02-21 23:01:00,46.0,37.0,29.97,NE,40,2.0,6.0,71,0.00,,,-99.99,,2013-02-22 07:01:00,
2013-02-21 23:11:00,46.0,37.0,29.97,NE,40,2.0,6.0,71,0.00,,,-99.99,,2013-02-22 07:11:00,
2013-02-21 23:42:00,47.0,35.0,29.97,NNE,23,1.0,5.0,64,0.00,,,-99.99,,2013-02-22 07:42:00,
2013-02-21 23:51:00,45.0,34.0,29.97,NNE,23,1.0,4.0,65,0.00,,,-99.99,,2013-02-22 07:51:00,
2013-02-21 23:52:00,47.0,35.0,29.97,NNE,23,1.0,5.0,64,0.00,,,-99.99,,2013-02-22 07:52:00,